createdAt,value
2022-07-26T00:00:13.443Z,17.75
2022-07-26T00:02:47.732Z,17.73
2022-07-26T00:05:16.634Z,17.63
2022-07-26T00:07:44.347Z,17.67
2022-07-26T00:10:11.865Z,17.63
2022-07-26T00:12:39.255Z,17.61
2022-07-26T00:15:08.751Z,17.57
2022-07-26T00:17:35.626Z,17.57
2022-07-26T00:20:02.581Z,17.56
2022-07-26T00:22:35.555Z,17.53
2022-07-26T00:25:06.175Z,17.52
2022-07-26T00:27:37.239Z,17.52
2022-07-26T00:30:10.090Z,17.48
2022-07-26T00:32:38.244Z,17.48
2022-07-26T00:35:06.973Z,17.46
2022-07-26T00:37:33.638Z,17.44
2022-07-26T00:40:00.737Z,17.43
2022-07-26T00:42:27.425Z,17.41
2022-07-26T00:44:54.225Z,17.34
2022-07-26T00:47:21.210Z,17.31
2022-07-26T00:49:47.903Z,17.37
2022-07-26T00:52:14.896Z,17.34
2022-07-26T00:54:45.584Z,17.33
2022-07-26T00:57:14.938Z,17.29
2022-07-26T00:59:43.047Z,17.29
2022-07-26T01:02:10.467Z,17.21
2022-07-26T01:04:37.304Z,17.25
2022-07-26T01:07:14.977Z,17.24
2022-07-26T01:09:42.822Z,17.15
2022-07-26T01:12:09.982Z,17.17
2022-07-26T01:14:36.932Z,17.12
2022-07-26T01:17:03.780Z,17.12
2022-07-26T01:19:30.808Z,17.08
2022-07-26T01:21:57.492Z,17.04
2022-07-26T01:24:24.139Z,17.00
2022-07-26T01:26:51.128Z,16.96
2022-07-26T01:29:17.988Z,16.86
2022-07-26T01:31:44.801Z,16.83
2022-07-26T01:34:12.133Z,16.86
2022-07-26T01:36:39.799Z,16.81
2022-07-26T01:39:07.084Z,16.79
2022-07-26T01:41:37.964Z,16.75
2022-07-26T01:44:07.426Z,16.75
2022-07-26T01:46:35.996Z,16.72
2022-07-26T01:49:03.359Z,16.64
2022-07-26T01:51:30.515Z,16.62
2022-07-26T01:53:57.470Z,16.64
2022-07-26T01:56:24.173Z,16.56
2022-07-26T01:58:50.796Z,16.52
2022-07-26T02:01:38.037Z,16.56
2022-07-26T02:04:05.114Z,16.51
2022-07-26T02:06:32.131Z,16.44
2022-07-26T02:09:00.614Z,16.43
2022-07-26T02:11:28.933Z,16.41
2022-07-26T02:13:55.596Z,16.33
2022-07-26T02:16:22.547Z,16.31
2022-07-26T02:18:49.669Z,16.35
2022-07-26T02:21:16.333Z,16.33
2022-07-26T02:23:43.458Z,16.20
2022-07-26T02:26:10.388Z,16.21
2022-07-26T02:28:37.092Z,16.22
2022-07-26T02:31:03.808Z,16.22
2022-07-26T02:33:30.823Z,16.22
2022-07-26T02:35:57.578Z,16.23
2022-07-26T02:38:24.478Z,16.23
2022-07-26T02:40:52.866Z,16.17
2022-07-26T02:43:19.902Z,16.37
2022-07-26T02:46:00.869Z,16.87
2022-07-26T02:48:30.909Z,17.42
2022-07-26T02:50:57.803Z,17.97
2022-07-26T02:53:24.475Z,18.09
2022-07-26T02:55:51.673Z,18.14
2022-07-26T02:58:21.353Z,18.22
2022-07-26T03:00:48.152Z,18.22
2022-07-26T03:03:15.179Z,18.33
2022-07-26T03:05:42.023Z,18.36
2022-07-26T03:08:08.759Z,18.22
2022-07-26T03:10:35.734Z,18.05
2022-07-26T03:13:02.472Z,17.88
2022-07-26T03:15:29.307Z,17.73
2022-07-26T03:17:56.896Z,17.55
2022-07-26T03:20:23.773Z,17.52
2022-07-26T03:22:50.426Z,17.44
2022-07-26T03:25:17.421Z,17.35
2022-07-26T03:27:44.227Z,17.33
2022-07-26T03:30:11.895Z,17.31
2022-07-26T03:32:38.945Z,17.35
2022-07-26T03:35:07.489Z,17.68
2022-07-26T03:37:46.272Z,18.11
2022-07-26T03:40:15.587Z,18.35
2022-07-26T03:42:42.501Z,18.72
2022-07-26T03:45:09.672Z,18.99
2022-07-26T03:47:37.360Z,19.26
2022-07-26T03:50:05.671Z,19.71
2022-07-26T03:52:32.564Z,20.17
2022-07-26T03:54:59.978Z,20.67
2022-07-26T03:57:28.229Z,21.14
2022-07-26T03:59:55.897Z,21.64
2022-07-26T04:02:22.980Z,22.08
2022-07-26T04:04:50.000Z,22.44
2022-07-26T04:07:16.740Z,22.62
2022-07-26T04:09:43.943Z,22.85
2022-07-26T04:12:10.832Z,22.94
2022-07-26T04:14:38.592Z,22.89
2022-07-26T04:17:05.371Z,22.72
2022-07-26T04:19:32.389Z,22.62
2022-07-26T04:22:03.685Z,22.59
2022-07-26T04:24:30.339Z,22.92
2022-07-26T04:26:57.392Z,22.52
2022-07-26T04:29:24.054Z,22.37
2022-07-26T04:31:50.729Z,22.31
2022-07-26T04:34:17.247Z,22.13
2022-07-26T04:36:44.239Z,21.91
2022-07-26T04:39:11.210Z,21.58
2022-07-26T04:41:37.908Z,21.31
2022-07-26T04:44:05.337Z,21.05
2022-07-26T04:46:32.277Z,20.88
2022-07-26T04:48:58.987Z,20.65
2022-07-26T04:51:26.534Z,20.48
2022-07-26T04:53:53.188Z,20.34
2022-07-26T04:56:19.851Z,20.06
2022-07-26T04:58:46.899Z,19.96
2022-07-26T05:01:13.572Z,19.90
2022-07-26T05:03:40.619Z,19.86
2022-07-26T05:06:07.712Z,19.77
2022-07-26T05:08:34.427Z,19.80
2022-07-26T05:11:01.137Z,19.83
2022-07-26T05:13:30.570Z,19.82
2022-07-26T05:15:59.222Z,19.79
2022-07-26T05:18:26.378Z,19.80
2022-07-26T05:20:53.410Z,19.83
2022-07-26T05:23:20.620Z,19.83
2022-07-26T05:25:47.775Z,19.85
2022-07-26T05:28:14.866Z,19.87
2022-07-26T05:30:41.700Z,19.83
2022-07-26T05:33:08.483Z,19.88
2022-07-26T05:35:35.455Z,19.88
2022-07-26T05:38:02.271Z,19.90
2022-07-26T05:40:29.224Z,19.81
2022-07-26T05:42:56.328Z,19.92
2022-07-26T05:45:23.054Z,19.95
2022-07-26T05:47:50.869Z,19.95
2022-07-26T05:50:17.968Z,19.98
2022-07-26T05:52:44.689Z,20.02
2022-07-26T05:55:11.983Z,20.08
2022-07-26T05:57:42.064Z,20.12
2022-07-26T06:00:09.753Z,20.15
2022-07-26T06:02:38.688Z,20.22
2022-07-26T06:05:05.936Z,20.24
2022-07-26T06:07:34.069Z,20.38
2022-07-26T06:10:00.720Z,20.46
2022-07-26T06:12:27.688Z,20.54
2022-07-26T06:14:54.301Z,20.59
2022-07-26T06:17:21.153Z,20.67
2022-07-26T06:19:48.363Z,20.75
2022-07-26T06:22:15.388Z,20.73
2022-07-26T06:24:42.280Z,20.75
2022-07-26T06:27:09.267Z,20.76
2022-07-26T06:29:36.023Z,20.65
2022-07-26T06:32:02.837Z,20.69
2022-07-26T06:34:30.065Z,20.63
2022-07-26T06:36:56.872Z,20.55
2022-07-26T06:39:23.655Z,20.56
2022-07-26T06:41:50.813Z,20.53
2022-07-26T06:44:22.648Z,20.62
2022-07-26T06:46:49.905Z,20.59
2022-07-26T06:49:21.937Z,20.62
2022-07-26T06:51:49.303Z,20.56
2022-07-26T06:54:16.045Z,20.52
2022-07-26T06:56:43.329Z,20.49
2022-07-26T06:59:10.264Z,20.50
2022-07-26T07:01:55.672Z,20.44
2022-07-26T07:04:24.379Z,20.48
2022-07-26T07:06:51.138Z,20.39
2022-07-26T07:09:19.538Z,20.43
2022-07-26T07:11:49.266Z,20.44
2022-07-26T07:14:19.037Z,20.46
2022-07-26T07:16:46.069Z,20.50
2022-07-26T07:19:13.080Z,20.52
2022-07-26T07:21:39.896Z,20.59
2022-07-26T07:24:07.456Z,20.64
2022-07-26T07:26:34.378Z,20.59
2022-07-26T07:29:04.086Z,20.76
2022-07-26T07:31:49.054Z,20.78
2022-07-26T07:34:18.132Z,20.80
2022-07-26T07:36:47.137Z,20.85
2022-07-26T07:39:17.524Z,20.89
2022-07-26T07:41:46.345Z,20.94
2022-07-26T07:44:14.036Z,20.92
2022-07-26T07:46:40.895Z,21.01
2022-07-26T07:49:08.081Z,21.03
2022-07-26T07:51:36.264Z,21.02
2022-07-26T07:54:05.677Z,21.01
2022-07-26T07:56:33.586Z,21.12
2022-07-26T07:59:00.735Z,21.23
2022-07-26T08:01:39.586Z,21.22
2022-07-26T08:04:09.256Z,21.34
2022-07-26T08:06:37.056Z,21.36
2022-07-26T08:09:05.577Z,21.41
2022-07-26T08:11:34.268Z,21.36
2022-07-26T08:14:01.796Z,21.36
2022-07-26T08:16:28.774Z,21.45
2022-07-26T08:18:57.730Z,21.44
2022-07-26T08:21:35.884Z,21.44
2022-07-26T08:24:03.294Z,21.48
2022-07-26T08:26:30.131Z,21.54
2022-07-26T08:29:09.885Z,21.55
2022-07-26T08:31:37.052Z,21.63
2022-07-26T08:34:03.837Z,21.67
2022-07-26T08:36:32.596Z,21.64
2022-07-26T08:39:00.963Z,21.63
2022-07-26T08:41:28.437Z,21.65
2022-07-26T08:43:55.116Z,21.73
2022-07-26T08:46:25.428Z,21.74
2022-07-26T08:48:54.039Z,21.72
2022-07-26T08:51:22.888Z,21.79
2022-07-26T08:53:54.265Z,21.90
2022-07-26T08:56:21.135Z,21.99
2022-07-26T08:58:47.935Z,22.02
2022-07-26T09:01:15.296Z,22.00
2022-07-26T09:03:43.425Z,22.04
2022-07-26T09:06:19.054Z,22.07
2022-07-26T09:08:49.579Z,22.10
2022-07-26T09:11:33.183Z,22.12
2022-07-26T09:14:03.309Z,22.15
2022-07-26T09:16:30.632Z,22.13
2022-07-26T09:19:22.332Z,22.13
2022-07-26T09:21:49.887Z,22.13
2022-07-26T09:24:36.740Z,22.12
2022-07-26T09:27:06.402Z,22.17
2022-07-26T09:29:46.301Z,22.17
2022-07-26T09:32:17.179Z,22.22
2022-07-26T09:34:52.620Z,22.27
2022-07-26T09:37:34.942Z,22.28
2022-07-26T09:40:05.257Z,22.29
2022-07-26T09:42:32.438Z,22.30
2022-07-26T09:44:59.697Z,22.29
2022-07-26T09:47:37.886Z,22.34
2022-07-26T09:50:16.570Z,22.33
2022-07-26T09:53:17.637Z,22.40
2022-07-26T09:55:45.249Z,22.41
2022-07-26T09:58:17.496Z,22.44
2022-07-26T10:00:44.933Z,22.47
2022-07-26T10:03:12.849Z,22.52
2022-07-26T10:05:39.762Z,22.53
2022-07-26T10:08:07.978Z,22.53
2022-07-26T10:10:40.237Z,22.50
2022-07-26T10:13:08.557Z,22.57
2022-07-26T10:15:46.600Z,22.52
2022-07-26T10:18:39.227Z,22.58
2022-07-26T10:21:16.843Z,22.67
2022-07-26T10:23:49.062Z,22.64
2022-07-26T10:26:45.607Z,22.64
2022-07-26T10:29:18.289Z,22.74
2022-07-26T10:32:00.541Z,22.75
2022-07-26T10:34:40.777Z,22.76
2022-07-26T10:37:21.655Z,22.82
2022-07-26T10:39:48.568Z,22.86
2022-07-26T10:42:15.509Z,22.76
2022-07-26T10:44:45.276Z,22.86
2022-07-26T10:47:18.549Z,22.83
2022-07-26T10:49:57.437Z,22.89
2022-07-26T10:52:28.029Z,22.83
2022-07-26T10:55:01.185Z,22.89
2022-07-26T10:57:33.778Z,22.90
2022-07-26T11:00:02.127Z,22.99
2022-07-26T11:02:32.716Z,23.06
2022-07-26T11:05:12.641Z,23.11
2022-07-26T11:07:55.399Z,23.15
2022-07-26T11:10:27.716Z,23.19
2022-07-26T11:12:59.689Z,23.21
2022-07-26T11:15:26.527Z,23.26
2022-07-26T11:18:06.314Z,23.23
2022-07-26T11:20:33.418Z,23.29
2022-07-26T11:23:00.259Z,23.21
2022-07-26T11:25:27.099Z,23.28
2022-07-26T11:28:07.294Z,23.22
2022-07-26T11:30:35.103Z,23.30
2022-07-26T11:33:02.140Z,23.26
2022-07-26T11:35:30.002Z,23.33
2022-07-26T11:38:11.235Z,23.34
2022-07-26T11:40:47.177Z,23.36
2022-07-26T11:43:14.847Z,23.44
2022-07-26T11:45:41.879Z,23.44
2022-07-26T11:48:08.624Z,23.35
2022-07-26T11:50:35.353Z,23.47
2022-07-26T11:53:02.315Z,23.51
2022-07-26T11:55:30.571Z,23.56
2022-07-26T11:58:05.066Z,23.51
2022-07-26T12:00:32.180Z,23.59
2022-07-26T12:02:59.354Z,23.64
2022-07-26T12:05:27.636Z,23.65
2022-07-26T12:07:57.040Z,23.66
2022-07-26T12:10:24.340Z,23.66
2022-07-26T12:13:06.647Z,23.68
2022-07-26T12:15:50.275Z,23.70
2022-07-26T12:18:29.050Z,23.75
2022-07-26T12:21:02.157Z,23.79
2022-07-26T12:23:42.468Z,23.80
2022-07-26T12:26:27.890Z,23.84
2022-07-26T12:28:56.008Z,23.83
2022-07-26T12:31:26.123Z,23.83
2022-07-26T12:33:53.026Z,23.92
2022-07-26T12:36:28.434Z,23.92
2022-07-26T12:39:00.439Z,24.00
2022-07-26T12:41:31.129Z,23.98
2022-07-26T12:43:59.639Z,23.98
2022-07-26T12:46:26.544Z,23.97
2022-07-26T12:48:56.831Z,23.99
2022-07-26T12:51:27.466Z,23.98
2022-07-26T12:53:54.959Z,23.94
2022-07-26T12:56:21.898Z,23.99
2022-07-26T12:58:49.413Z,24.02
2022-07-26T13:01:17.250Z,24.05
2022-07-26T13:03:44.340Z,24.09
2022-07-26T13:06:12.691Z,24.09
2022-07-26T13:08:41.783Z,24.11
2022-07-26T13:11:08.765Z,24.10
2022-07-26T13:13:35.860Z,24.05
2022-07-26T13:16:09.604Z,24.08
2022-07-26T13:18:39.192Z,24.15
2022-07-26T13:21:06.066Z,24.18
2022-07-26T13:23:32.821Z,24.14
2022-07-26T13:26:03.616Z,24.23
2022-07-26T13:28:31.073Z,24.26
2022-07-26T13:30:57.798Z,24.29
2022-07-26T13:33:24.813Z,24.29
2022-07-26T13:35:51.533Z,24.30
2022-07-26T13:38:19.694Z,24.29
2022-07-26T13:40:46.691Z,24.33
2022-07-26T13:43:13.365Z,24.34
2022-07-26T13:45:40.131Z,24.32
2022-07-26T13:48:07.697Z,24.30
2022-07-26T13:50:34.514Z,24.37
2022-07-26T13:53:01.312Z,24.37
2022-07-26T13:55:28.576Z,24.39
2022-07-26T13:57:57.262Z,24.45
2022-07-26T14:00:29.098Z,24.48
2022-07-26T14:03:00.313Z,24.51
2022-07-26T14:05:29.789Z,24.52
2022-07-26T14:07:56.839Z,24.54
2022-07-26T14:10:24.721Z,24.55
2022-07-26T14:12:52.106Z,24.53
2022-07-26T14:15:22.766Z,24.57
2022-07-26T14:17:51.598Z,24.55
2022-07-26T14:20:18.787Z,24.53
2022-07-26T14:22:45.828Z,24.51
2022-07-26T14:25:12.612Z,24.50
2022-07-26T14:27:39.384Z,24.51
2022-07-26T14:30:07.066Z,24.54
2022-07-26T14:32:34.001Z,24.55
2022-07-26T14:35:00.708Z,24.53
2022-07-26T14:37:44.545Z,24.52
2022-07-26T14:40:17.912Z,24.54
2022-07-26T14:42:45.971Z,24.55
2022-07-26T14:45:14.164Z,24.50
2022-07-26T14:47:41.072Z,24.53
2022-07-26T14:50:09.531Z,24.55
2022-07-26T14:52:47.634Z,24.54
2022-07-26T14:55:19.192Z,24.55
2022-07-26T14:57:49.813Z,24.57
2022-07-26T15:00:17.938Z,24.56
2022-07-26T15:02:46.264Z,24.56
2022-07-26T15:05:13.930Z,24.49
2022-07-26T15:07:42.092Z,24.53
2022-07-26T15:10:10.921Z,24.49
2022-07-26T15:12:38.008Z,24.49
2022-07-26T15:15:06.617Z,24.48
2022-07-26T15:17:33.316Z,24.47
2022-07-26T15:20:00.190Z,24.48
2022-07-26T15:22:27.277Z,24.47
2022-07-26T15:24:53.922Z,24.48
2022-07-26T15:27:20.754Z,24.44
2022-07-26T15:29:49.641Z,24.53
2022-07-26T15:32:16.612Z,24.49
2022-07-26T15:34:43.386Z,24.49
2022-07-26T15:37:10.436Z,24.50
2022-07-26T15:39:37.201Z,24.40
2022-07-26T15:42:07.538Z,24.45
2022-07-26T15:44:37.517Z,24.47
2022-07-26T15:47:05.266Z,24.46
2022-07-26T15:49:33.121Z,24.38
2022-07-26T15:52:01.083Z,24.43
2022-07-26T15:54:28.028Z,24.41
2022-07-26T15:56:54.842Z,24.40
2022-07-26T15:59:21.903Z,24.42
2022-07-26T16:01:49.146Z,24.39
2022-07-26T16:04:16.244Z,24.39
2022-07-26T16:06:43.086Z,24.36
2022-07-26T16:09:19.084Z,24.36
2022-07-26T16:11:47.165Z,24.30
2022-07-26T16:14:14.702Z,24.34
2022-07-26T16:16:41.537Z,24.37
2022-07-26T16:19:08.859Z,24.36
2022-07-26T16:21:37.103Z,24.31
2022-07-26T16:24:07.102Z,24.35
2022-07-26T16:26:35.615Z,24.35
2022-07-26T16:29:02.852Z,24.34
2022-07-26T16:31:31.221Z,24.33
2022-07-26T16:33:58.422Z,24.33
2022-07-26T16:36:25.631Z,24.33
2022-07-26T16:38:52.385Z,24.31
2022-07-26T16:41:19.540Z,24.27
2022-07-26T16:43:46.349Z,24.24
2022-07-26T16:46:13.410Z,24.21
2022-07-26T16:48:40.513Z,24.20
2022-07-26T16:51:07.381Z,24.16
2022-07-26T16:53:34.221Z,24.22
2022-07-26T16:56:01.248Z,24.17
2022-07-26T16:58:27.962Z,24.19
2022-07-26T17:00:55.011Z,24.15
2022-07-26T17:03:22.065Z,24.02
2022-07-26T17:05:48.753Z,24.02
2022-07-26T17:08:15.993Z,24.01
2022-07-26T17:10:43.332Z,24.02
2022-07-26T17:13:12.934Z,23.99
2022-07-26T17:15:39.690Z,23.98
2022-07-26T17:18:06.675Z,23.97
2022-07-26T17:20:33.405Z,23.95
2022-07-26T17:23:00.208Z,23.93
2022-07-26T17:25:27.443Z,23.88
2022-07-26T17:27:54.244Z,23.88
2022-07-26T17:30:21.091Z,23.83
2022-07-26T17:32:48.129Z,23.81
2022-07-26T17:35:15.021Z,23.74
2022-07-26T17:37:41.840Z,23.69
2022-07-26T17:40:10.996Z,23.65
2022-07-26T17:42:38.667Z,23.56
2022-07-26T17:45:06.554Z,23.57
2022-07-26T17:47:33.607Z,23.54
2022-07-26T17:50:34.094Z,23.52
2022-07-26T17:52:50.730Z,23.47
2022-07-26T17:55:20.867Z,23.44
2022-07-26T17:57:49.619Z,23.42
2022-07-26T18:00:19.825Z,23.39
2022-07-26T18:02:47.767Z,23.36
2022-07-26T18:05:14.853Z,23.33
2022-07-26T18:07:41.895Z,23.29
2022-07-26T18:10:11.106Z,23.27
2022-07-26T18:12:38.185Z,23.24
2022-07-26T18:15:07.029Z,23.21
2022-07-26T18:17:34.182Z,23.17
2022-07-26T18:20:00.887Z,23.14
2022-07-26T18:22:27.584Z,23.12
2022-07-26T18:24:54.722Z,23.05
2022-07-26T18:27:22.314Z,23.02
2022-07-26T18:29:49.419Z,22.97
2022-07-26T18:32:16.460Z,22.89
2022-07-26T18:34:51.549Z,22.87
2022-07-26T18:37:20.771Z,22.81
2022-07-26T18:39:48.052Z,22.76
2022-07-26T18:42:15.137Z,22.70
2022-07-26T18:44:42.255Z,22.67
2022-07-26T18:47:09.481Z,22.60
2022-07-26T18:49:36.315Z,22.53
2022-07-26T18:52:08.552Z,22.53
2022-07-26T18:54:36.311Z,22.52
2022-07-26T18:57:04.804Z,22.49
2022-07-26T18:59:31.879Z,22.44
2022-07-26T19:02:00.058Z,22.37
2022-07-26T19:04:28.341Z,22.33
2022-07-26T19:06:55.318Z,22.27
2022-07-26T19:09:22.029Z,22.20
2022-07-26T19:11:49.217Z,22.13
2022-07-26T19:14:15.959Z,22.07
2022-07-26T19:16:42.649Z,22.01
2022-07-26T19:19:10.285Z,21.97
2022-07-26T19:21:37.987Z,21.93
2022-07-26T19:24:05.325Z,21.92
2022-07-26T19:26:32.342Z,21.88
2022-07-26T19:28:59.185Z,21.81
2022-07-26T19:31:26.036Z,21.82
2022-07-26T19:33:53.313Z,21.78
2022-07-26T19:36:25.817Z,21.71
2022-07-26T19:38:54.324Z,21.66
2022-07-26T19:41:23.794Z,21.59
2022-07-26T19:43:50.612Z,21.54
2022-07-26T19:46:17.650Z,21.48
2022-07-26T19:48:44.711Z,21.43
2022-07-26T19:51:11.682Z,21.40
2022-07-26T19:53:38.691Z,21.35
2022-07-26T19:56:06.237Z,21.31
2022-07-26T19:58:33.706Z,21.28
2022-07-26T20:01:00.962Z,21.25
2022-07-26T20:03:28.155Z,21.24
2022-07-26T20:05:56.849Z,21.18
2022-07-26T20:08:24.589Z,21.16
2022-07-26T20:10:52.169Z,21.17
2022-07-26T20:13:19.008Z,21.14
2022-07-26T20:15:47.295Z,21.10
2022-07-26T20:18:14.267Z,21.06
2022-07-26T20:20:41.103Z,21.02
2022-07-26T20:23:10.888Z,21.00
2022-07-26T20:25:37.952Z,20.91
2022-07-26T20:28:04.957Z,20.95
2022-07-26T20:30:31.763Z,20.87
2022-07-26T20:32:58.828Z,20.74
2022-07-26T20:35:25.547Z,20.76
2022-07-26T20:37:52.197Z,20.78
2022-07-26T20:40:19.240Z,20.71
2022-07-26T20:42:50.103Z,20.61
2022-07-26T20:58:27.124Z,21.06
2022-07-26T21:00:54.343Z,21.06
2022-07-26T21:03:21.154Z,20.65
2022-07-26T21:05:47.857Z,20.59
2022-07-26T21:08:14.886Z,20.53
2022-07-26T21:17:57.481Z,20.32
2022-07-26T21:20:24.811Z,20.28
2022-07-26T21:22:51.475Z,20.25
2022-07-26T21:25:18.137Z,20.23
2022-07-26T21:27:45.147Z,20.19
2022-07-26T21:30:12.350Z,20.13
2022-07-26T21:32:39.092Z,20.07
2022-07-26T21:35:06.474Z,19.98
2022-07-26T21:37:33.234Z,19.99
2022-07-26T21:40:00.906Z,19.97
2022-07-26T21:42:28.345Z,19.94
2022-07-26T21:44:55.004Z,19.90
2022-07-26T21:47:21.689Z,19.89
2022-07-26T21:49:49.166Z,19.86
2022-07-26T21:52:16.979Z,19.74
2022-07-26T21:54:43.681Z,19.72
2022-07-26T21:57:10.699Z,19.75
2022-07-26T21:59:37.355Z,19.68
2022-07-26T22:02:04.144Z,19.67
2022-07-26T22:04:31.284Z,19.67
2022-07-26T22:06:57.954Z,19.60
2022-07-26T22:09:24.780Z,19.56
2022-07-26T22:11:53.380Z,19.53
2022-07-26T22:14:21.092Z,19.49
2022-07-26T22:16:49.244Z,19.53
2022-07-26T22:19:16.457Z,19.47
2022-07-26T22:21:43.278Z,19.37
2022-07-26T22:24:10.104Z,19.41
2022-07-26T22:26:37.219Z,19.28
2022-07-26T22:29:04.130Z,19.34
2022-07-26T22:31:31.036Z,19.30
2022-07-26T22:33:58.023Z,19.28
2022-07-26T22:36:24.867Z,19.25
2022-07-26T22:38:51.544Z,19.23
2022-07-26T22:41:18.673Z,19.12
2022-07-26T22:43:45.399Z,19.10
2022-07-26T22:46:12.079Z,19.12
2022-07-26T22:48:42.180Z,19.09
2022-07-26T22:51:11.189Z,19.00
2022-07-26T22:53:37.896Z,19.05
2022-07-26T22:56:05.196Z,18.97
2022-07-26T22:58:31.953Z,18.97
2022-07-26T23:00:58.819Z,18.99
2022-07-26T23:03:25.763Z,18.94
2022-07-26T23:05:54.827Z,18.84
2022-07-26T23:08:47.199Z,18.90
2022-07-26T23:11:08.627Z,18.81
2022-07-26T23:13:35.619Z,18.82
2022-07-26T23:16:02.435Z,18.75
2022-07-26T23:18:31.188Z,18.81
2022-07-26T23:20:57.834Z,18.75
2022-07-26T23:23:27.797Z,18.77
2022-07-26T23:25:58.239Z,18.77
2022-07-26T23:28:36.944Z,18.69
2022-07-26T23:31:10.860Z,18.70
2022-07-26T23:33:50.688Z,18.64
2022-07-26T23:36:22.174Z,18.62
2022-07-26T23:38:48.839Z,18.59
2022-07-26T23:41:15.562Z,18.65
2022-07-26T23:43:42.591Z,18.55
2022-07-26T23:46:09.282Z,18.61
2022-07-26T23:48:36.025Z,18.60
2022-07-26T23:51:03.034Z,18.57
2022-07-26T23:53:30.124Z,18.55
2022-07-26T23:55:56.817Z,18.46
2022-07-26T23:58:23.865Z,18.52
